createdAt,value
2022-12-20T00:01:30.114Z,32.30
2022-12-20T00:03:57.580Z,99.90
2022-12-20T00:06:24.442Z,99.90
2022-12-20T00:08:55.157Z,2.10
2022-12-20T00:11:22.087Z,99.90
2022-12-20T00:13:48.662Z,99.90
2022-12-20T00:16:16.871Z,99.90
2022-12-20T00:18:43.818Z,1.00
2022-12-20T00:21:12.339Z,1.00
2022-12-20T00:23:39.556Z,99.90
2022-12-20T00:26:07.530Z,99.90
2022-12-20T00:28:34.875Z,99.90
2022-12-20T00:31:02.192Z,99.90
2022-12-20T00:33:28.793Z,99.90
2022-12-20T00:35:56.494Z,99.90
2022-12-20T00:38:23.947Z,1.00
2022-12-20T00:41:07.877Z,1.00
2022-12-20T00:43:34.525Z,1.00
2022-12-20T00:46:01.365Z,1.00
2022-12-20T00:48:28.582Z,1.00
2022-12-20T00:50:59.460Z,1.00
2022-12-20T00:53:26.651Z,1.00
2022-12-20T00:55:53.443Z,1.00
2022-12-20T00:58:20.402Z,1.00
2022-12-20T01:00:52.253Z,1.00
2022-12-20T01:03:22.356Z,1.00
2022-12-20T01:05:55.164Z,1.00
2022-12-20T01:08:24.010Z,1.00
2022-12-20T01:11:07.561Z,99.90
2022-12-20T01:13:35.314Z,99.90
2022-12-20T01:16:08.801Z,99.90
2022-12-20T01:18:35.703Z,99.90
2022-12-20T01:21:03.794Z,99.90
2022-12-20T01:23:30.739Z,99.90
2022-12-20T01:25:58.189Z,1.00
2022-12-20T01:28:24.833Z,1.00
2022-12-20T01:30:51.523Z,1.00
2022-12-20T01:33:19.099Z,1.00
2022-12-20T01:35:58.733Z,1.00
2022-12-20T01:38:28.555Z,1.00
2022-12-20T01:40:55.869Z,1.00
2022-12-20T01:43:22.751Z,1.00
2022-12-20T01:45:49.615Z,1.00
2022-12-20T01:48:18.836Z,1.00
2022-12-20T01:50:46.789Z,1.00
2022-12-20T01:53:13.465Z,1.00
2022-12-20T01:55:40.218Z,1.00
2022-12-20T01:58:08.698Z,1.00
2022-12-20T02:00:35.403Z,1.00
2022-12-20T02:03:04.717Z,1.00
2022-12-20T02:05:35.476Z,1.00
2022-12-20T02:08:02.185Z,1.00
2022-12-20T02:10:34.419Z,40.80
2022-12-20T02:13:07.500Z,25.00
2022-12-20T02:15:46.836Z,76.10
2022-12-20T02:18:19.298Z,95.30
2022-12-20T02:21:05.380Z,24.60
2022-12-20T02:23:42.902Z,1.00
2022-12-20T02:26:27.983Z,36.00
2022-12-20T02:29:02.777Z,1.00
2022-12-20T02:31:38.481Z,1.00
2022-12-20T02:34:05.582Z,1.00
2022-12-20T02:36:32.261Z,1.00
2022-12-20T02:38:58.867Z,35.60
2022-12-20T02:41:30.240Z,57.70
2022-12-20T02:44:18.512Z,16.50
2022-12-20T02:46:45.841Z,13.80
2022-12-20T02:49:14.837Z,93.70
2022-12-20T02:51:42.483Z,91.20
2022-12-20T02:54:09.247Z,60.00
2022-12-20T02:56:38.552Z,83.60
2022-12-20T02:59:13.690Z,3.60
2022-12-20T03:01:44.523Z,24.70
2022-12-20T03:04:11.470Z,99.90
2022-12-20T03:06:38.889Z,99.90
2022-12-20T03:09:05.527Z,1.00
2022-12-20T03:11:32.116Z,99.90
2022-12-20T03:13:58.684Z,99.90
2022-12-20T03:16:25.357Z,99.90
2022-12-20T03:18:51.963Z,99.90
2022-12-20T03:21:18.517Z,4.90
2022-12-20T03:23:45.031Z,99.90
2022-12-20T03:26:11.579Z,1.00
2022-12-20T03:28:38.143Z,7.00
2022-12-20T03:31:04.762Z,99.90
2022-12-20T03:33:31.310Z,29.80
2022-12-20T03:35:57.943Z,1.00
2022-12-20T03:38:24.460Z,99.90
2022-12-20T03:40:51.005Z,99.90
2022-12-20T03:43:17.522Z,1.00
2022-12-20T03:45:44.113Z,1.00
2022-12-20T03:48:10.671Z,1.00
2022-12-20T03:50:37.340Z,1.00
2022-12-20T03:53:04.053Z,51.90
2022-12-20T03:55:30.589Z,34.70
2022-12-20T03:57:57.132Z,6.90
2022-12-20T04:00:23.702Z,99.90
2022-12-20T04:02:50.573Z,99.90
2022-12-20T04:05:17.364Z,1.00
2022-12-20T04:07:45.244Z,1.00
2022-12-20T04:10:11.802Z,1.00
2022-12-20T04:12:38.383Z,1.00
2022-12-20T04:15:05.124Z,1.00
2022-12-20T04:17:31.701Z,1.00
2022-12-20T04:19:58.225Z,1.00
2022-12-20T04:22:24.752Z,1.00
2022-12-20T04:24:51.290Z,99.90
2022-12-20T04:27:17.828Z,99.90
2022-12-20T04:29:44.381Z,99.90
2022-12-20T04:32:10.918Z,1.00
2022-12-20T04:34:37.450Z,1.00
2022-12-20T04:37:04.099Z,2.60
2022-12-20T04:39:30.640Z,99.90
2022-12-20T04:44:48.238Z,1.00
2022-12-20T04:47:14.782Z,1.00
2022-12-20T04:49:41.332Z,1.00
2022-12-20T04:52:26.754Z,15.50
2022-12-20T04:54:53.403Z,11.00
2022-12-20T04:57:19.965Z,1.00
2022-12-20T04:59:46.492Z,1.00
2022-12-20T05:02:13.149Z,1.00
2022-12-20T05:04:39.797Z,99.90
2022-12-20T05:07:06.333Z,99.90
2022-12-20T05:09:32.878Z,99.90
2022-12-20T05:11:59.426Z,99.90
2022-12-20T05:14:25.966Z,1.00
2022-12-20T05:16:52.515Z,1.00
2022-12-20T05:19:19.162Z,99.90
2022-12-20T05:22:04.551Z,1.00
2022-12-20T05:24:49.611Z,1.00
2022-12-20T05:27:16.126Z,1.00
2022-12-20T05:29:42.655Z,1.00
2022-12-20T05:32:09.323Z,1.00
2022-12-20T05:34:35.841Z,1.00
2022-12-20T05:37:02.551Z,1.00
2022-12-20T05:39:29.541Z,99.90
2022-12-20T05:41:56.161Z,1.00
2022-12-20T05:44:22.838Z,1.00
2022-12-20T05:46:49.472Z,99.90
2022-12-20T05:49:16.123Z,99.90
2022-12-20T05:51:42.845Z,1.00
2022-12-20T05:54:09.400Z,1.00
2022-12-20T05:56:36.001Z,1.00
2022-12-20T05:59:02.513Z,1.00
2022-12-20T06:01:29.217Z,1.00
2022-12-20T06:03:55.999Z,1.00
2022-12-20T06:06:22.567Z,1.00
2022-12-20T06:08:49.309Z,99.90
2022-12-20T06:11:15.880Z,99.90
2022-12-20T06:13:42.410Z,99.90
2022-12-20T06:16:09.002Z,99.90
2022-12-20T06:18:35.635Z,99.90
2022-12-20T06:21:02.230Z,99.90
2022-12-20T06:23:28.772Z,99.90
2022-12-20T06:25:55.465Z,99.90
2022-12-20T06:28:22.462Z,27.00
2022-12-20T06:30:52.680Z,99.90
2022-12-20T06:33:19.228Z,1.00
2022-12-20T06:35:45.819Z,1.00
2022-12-20T06:38:12.508Z,1.00
2022-12-20T06:40:39.056Z,1.00
2022-12-20T06:43:05.629Z,1.00
2022-12-20T06:45:37.584Z,1.00
2022-12-20T06:48:07.640Z,1.00
2022-12-20T06:50:34.209Z,99.90
2022-12-20T06:53:00.747Z,58.00
2022-12-20T06:55:27.335Z,99.90
2022-12-20T06:57:55.218Z,99.90
2022-12-20T07:00:22.273Z,99.90
2022-12-20T07:02:48.882Z,1.00
2022-12-20T07:05:15.537Z,1.00
2022-12-20T07:07:49.691Z,1.00
2022-12-20T07:10:16.563Z,1.00
2022-12-20T07:12:47.883Z,1.00
2022-12-20T07:15:15.273Z,1.00
2022-12-20T07:17:41.838Z,1.00
2022-12-20T07:20:13.265Z,1.00
2022-12-20T07:22:40.897Z,1.00
2022-12-20T07:25:07.547Z,1.00
2022-12-20T07:27:34.065Z,1.00
2022-12-20T07:30:00.629Z,1.00
2022-12-20T07:32:27.162Z,1.00
2022-12-20T07:34:53.693Z,99.90
2022-12-20T07:37:20.259Z,99.90
2022-12-20T07:39:46.894Z,99.90
2022-12-20T07:42:13.875Z,99.90
2022-12-20T07:44:40.795Z,95.00
2022-12-20T07:47:07.395Z,99.90
2022-12-20T07:49:33.957Z,1.00
2022-12-20T07:52:02.544Z,1.00
2022-12-20T07:54:31.288Z,99.90
2022-12-20T07:56:59.612Z,1.00
2022-12-20T07:59:30.585Z,99.90
2022-12-20T08:02:04.335Z,99.90
2022-12-20T08:04:32.198Z,99.90
2022-12-20T08:06:59.409Z,1.00
2022-12-20T08:09:26.964Z,99.90
2022-12-20T08:11:53.746Z,99.90
2022-12-20T08:14:20.520Z,99.90
2022-12-20T08:16:47.098Z,99.90
2022-12-20T08:19:13.733Z,1.00
2022-12-20T08:21:40.313Z,99.90
2022-12-20T08:24:08.174Z,82.70
2022-12-20T08:26:38.671Z,1.00
2022-12-20T08:29:05.307Z,2.10
2022-12-20T08:31:31.988Z,1.00
2022-12-20T08:33:58.564Z,1.00
2022-12-20T08:36:25.086Z,1.00
2022-12-20T08:38:51.647Z,1.00
2022-12-20T08:41:18.180Z,1.00
2022-12-20T08:43:44.820Z,1.00
2022-12-20T08:46:12.614Z,43.40
2022-12-20T08:48:39.682Z,99.90
2022-12-20T08:51:07.979Z,99.90
2022-12-20T08:53:35.313Z,99.90
2022-12-20T08:56:06.108Z,99.90
2022-12-20T08:58:33.219Z,99.90
2022-12-20T09:01:06.379Z,31.00
2022-12-20T09:03:34.071Z,1.00
2022-12-20T09:06:00.769Z,1.00
2022-12-20T09:08:27.709Z,99.90
2022-12-20T09:10:54.345Z,99.90
2022-12-20T09:13:21.588Z,1.00
2022-12-20T09:15:48.307Z,1.00
2022-12-20T09:18:14.838Z,1.00
2022-12-20T09:20:42.624Z,99.90
2022-12-20T09:23:09.139Z,1.00
2022-12-20T09:25:37.437Z,1.00
2022-12-20T09:28:04.648Z,99.90
2022-12-20T09:30:31.255Z,18.20
2022-12-20T09:32:57.783Z,99.90
2022-12-20T09:35:37.091Z,99.90
2022-12-20T09:38:05.887Z,99.90
2022-12-20T09:40:32.661Z,99.90
2022-12-20T09:42:59.331Z,17.70
2022-12-20T09:45:28.108Z,1.00
2022-12-20T09:47:54.833Z,1.00
2022-12-20T09:50:28.357Z,1.00
2022-12-20T09:53:02.361Z,1.00
2022-12-20T09:55:39.157Z,1.00
2022-12-20T09:58:18.166Z,1.00
2022-12-20T10:00:53.600Z,1.00
2022-12-20T10:03:23.090Z,16.00
2022-12-20T10:05:58.811Z,51.10
2022-12-20T10:08:43.702Z,39.70
2022-12-20T10:11:16.371Z,1.00
2022-12-20T10:13:43.028Z,1.00
2022-12-20T10:16:33.580Z,99.90
2022-12-20T10:19:00.193Z,99.90
2022-12-20T10:21:50.414Z,1.00
2022-12-20T10:24:20.965Z,1.00
2022-12-20T10:26:50.908Z,1.00
2022-12-20T10:29:18.190Z,1.00
2022-12-20T10:31:44.825Z,1.00
2022-12-20T10:34:11.393Z,1.00
2022-12-20T10:36:38.254Z,1.00
2022-12-20T10:39:09.151Z,1.00
2022-12-20T10:41:35.662Z,1.00
2022-12-20T10:44:25.525Z,99.90
2022-12-20T10:46:54.009Z,99.90
2022-12-20T10:49:22.336Z,99.90
2022-12-20T10:51:56.289Z,99.90
2022-12-20T10:54:24.402Z,99.90
2022-12-20T10:56:58.283Z,99.90
2022-12-20T10:59:29.990Z,99.90
2022-12-20T11:01:56.614Z,99.90
2022-12-20T11:04:28.235Z,99.90
2022-12-20T11:06:55.995Z,99.90
2022-12-20T11:09:27.578Z,99.90
2022-12-20T11:12:13.463Z,99.90
2022-12-20T11:14:40.692Z,99.90
2022-12-20T11:17:13.023Z,99.90
2022-12-20T11:19:39.584Z,99.90
2022-12-20T11:22:06.556Z,99.90
2022-12-20T11:24:37.003Z,99.90
2022-12-20T11:27:16.080Z,99.90
2022-12-20T11:30:12.679Z,99.90
2022-12-20T11:32:52.734Z,99.90
2022-12-20T11:35:22.209Z,99.90
2022-12-20T11:38:07.207Z,99.90
2022-12-20T11:40:39.279Z,99.90
2022-12-20T11:43:24.633Z,99.90
2022-12-20T11:46:08.483Z,99.90
2022-12-20T11:48:46.124Z,99.90
2022-12-20T11:51:26.039Z,99.90
2022-12-20T11:54:00.258Z,99.90
2022-12-20T11:56:30.925Z,99.90
2022-12-20T11:58:57.563Z,99.90
2022-12-20T12:01:26.921Z,99.90
2022-12-20T12:04:13.857Z,99.90
2022-12-20T12:06:43.843Z,99.90
2022-12-20T12:09:16.509Z,99.90
2022-12-20T12:14:33.678Z,99.90
2022-12-20T12:17:06.935Z,99.90
2022-12-20T12:19:36.696Z,99.90
2022-12-20T12:22:07.231Z,99.90
2022-12-20T12:24:42.610Z,99.90
2022-12-20T12:27:35.853Z,99.90
2022-12-20T12:30:02.447Z,99.90
2022-12-20T12:32:47.623Z,99.90
2022-12-20T12:35:23.781Z,99.90
2022-12-20T12:37:55.002Z,99.90
2022-12-20T12:40:32.083Z,99.90
2022-12-20T12:43:20.141Z,99.90
2022-12-20T12:45:47.452Z,99.90
2022-12-20T12:48:31.246Z,99.90
2022-12-20T12:50:58.650Z,99.90
2022-12-20T12:53:45.713Z,99.90
2022-12-20T12:56:45.097Z,99.90
2022-12-20T12:59:12.706Z,99.90
2022-12-20T13:01:54.026Z,99.90
2022-12-20T13:04:20.815Z,99.90
2022-12-20T13:06:47.368Z,99.90
2022-12-20T13:09:19.244Z,99.90
2022-12-20T13:11:47.872Z,99.90
2022-12-20T13:14:24.878Z,99.90
2022-12-20T13:17:22.163Z,99.90
2022-12-20T13:19:54.216Z,99.90
2022-12-20T13:22:22.434Z,99.90
2022-12-20T13:24:53.227Z,99.90
2022-12-20T13:27:41.743Z,99.90
2022-12-20T13:30:11.800Z,99.90
2022-12-20T13:32:47.699Z,99.90
2022-12-20T13:35:26.657Z,99.90
2022-12-20T13:37:55.039Z,99.90
2022-12-20T13:40:43.723Z,99.90
2022-12-20T13:43:15.869Z,99.90
2022-12-20T13:45:45.496Z,99.90
2022-12-20T13:48:15.291Z,99.90
2022-12-20T13:50:47.304Z,99.90
2022-12-20T13:53:18.103Z,99.90
2022-12-20T13:55:45.208Z,99.90
2022-12-20T13:58:13.260Z,99.90
2022-12-20T14:00:40.120Z,99.90
2022-12-20T14:03:10.599Z,99.90
2022-12-20T14:05:37.756Z,99.90
2022-12-20T14:08:07.095Z,99.90
2022-12-20T14:10:34.330Z,99.90
2022-12-20T14:13:01.965Z,99.90
2022-12-20T14:15:28.524Z,99.90
2022-12-20T14:17:55.315Z,99.90
2022-12-20T14:20:21.793Z,99.90
2022-12-20T14:22:53.603Z,99.90
2022-12-20T14:25:35.906Z,99.90
2022-12-20T14:28:03.433Z,99.90
2022-12-20T14:30:35.286Z,99.90
2022-12-20T14:33:02.003Z,99.90
2022-12-20T14:35:28.731Z,99.90
2022-12-20T14:37:56.826Z,99.90
2022-12-20T14:40:23.922Z,99.90
2022-12-20T14:42:50.469Z,99.90
2022-12-20T14:45:17.152Z,99.90
2022-12-20T14:47:48.777Z,99.90
2022-12-20T14:50:20.196Z,99.90
2022-12-20T14:52:46.761Z,99.90
2022-12-20T14:55:22.608Z,99.90
2022-12-20T14:57:51.801Z,99.90
2022-12-20T15:00:18.346Z,99.90
2022-12-20T15:02:51.148Z,99.90
2022-12-20T15:05:36.420Z,99.90
2022-12-20T15:08:10.278Z,99.90
2022-12-20T15:10:36.982Z,99.90
2022-12-20T15:13:04.251Z,99.90
2022-12-20T15:15:31.253Z,99.90
2022-12-20T15:17:57.841Z,99.90
2022-12-20T15:20:24.369Z,99.90
2022-12-20T15:22:50.893Z,99.90
2022-12-20T15:25:17.530Z,99.90
2022-12-20T15:27:44.027Z,99.90
2022-12-20T15:30:13.968Z,99.90
2022-12-20T15:32:54.602Z,99.90
2022-12-20T15:35:22.107Z,99.90
2022-12-20T15:37:48.631Z,99.90
2022-12-20T15:40:15.460Z,99.90
2022-12-20T15:42:42.818Z,99.90
2022-12-20T15:45:13.431Z,99.90
2022-12-20T15:47:40.093Z,99.90
2022-12-20T15:50:07.049Z,99.90
2022-12-20T15:52:33.622Z,99.90
2022-12-20T15:55:00.119Z,99.90
2022-12-20T15:57:28.797Z,99.90
2022-12-20T16:00:01.761Z,99.90
2022-12-20T16:02:30.708Z,99.90
2022-12-20T16:04:58.654Z,99.90
2022-12-20T16:07:25.244Z,99.90
2022-12-20T16:09:51.811Z,99.90
2022-12-20T16:12:24.162Z,99.90
2022-12-20T16:14:51.632Z,99.90
2022-12-20T16:17:18.204Z,99.90
2022-12-20T16:19:44.960Z,99.90
2022-12-20T16:22:15.659Z,99.90
2022-12-20T16:24:42.352Z,99.90
2022-12-20T16:27:09.258Z,99.90
2022-12-20T16:29:35.770Z,99.90
2022-12-20T16:32:06.304Z,99.90
2022-12-20T16:34:33.279Z,99.90
2022-12-20T16:37:00.815Z,99.90
2022-12-20T16:39:27.335Z,99.90
2022-12-20T16:41:54.462Z,99.90
2022-12-20T16:44:21.186Z,99.90
2022-12-20T16:46:47.781Z,99.90
2022-12-20T16:49:20.033Z,99.90
2022-12-20T16:51:48.206Z,99.90
2022-12-20T16:54:19.792Z,99.90
2022-12-20T16:56:47.586Z,99.90
2022-12-20T16:59:20.727Z,99.90
2022-12-20T17:01:49.066Z,99.90
2022-12-20T17:04:17.524Z,99.90
2022-12-20T17:06:44.894Z,99.90
2022-12-20T17:09:11.571Z,99.90
2022-12-20T17:11:38.143Z,99.90
2022-12-20T17:14:10.579Z,99.90
2022-12-20T17:16:39.228Z,99.90
2022-12-20T17:19:05.913Z,99.90
2022-12-20T17:24:26.274Z,99.90
2022-12-20T17:26:52.839Z,99.90
2022-12-20T17:29:20.434Z,99.90
2022-12-20T17:31:47.820Z,99.90
2022-12-20T17:34:24.136Z,99.90
2022-12-20T17:36:51.790Z,99.90
2022-12-20T17:39:18.316Z,99.90
2022-12-20T17:41:44.833Z,99.90
2022-12-20T17:44:18.915Z,99.90
2022-12-20T17:46:47.311Z,1.00
2022-12-20T17:49:14.304Z,1.00
2022-12-20T17:51:40.930Z,1.00
2022-12-20T17:54:13.753Z,1.00
2022-12-20T17:56:40.328Z,1.00
2022-12-20T17:59:06.947Z,1.00
2022-12-20T18:01:34.711Z,1.00
2022-12-20T18:04:04.625Z,1.00
2022-12-20T18:06:32.579Z,1.00
2022-12-20T18:08:59.127Z,1.00
2022-12-20T18:11:27.118Z,1.00
2022-12-20T18:13:55.262Z,1.00
2022-12-20T18:16:22.995Z,1.00
2022-12-20T18:18:50.025Z,1.00
2022-12-20T18:21:18.221Z,1.00
2022-12-20T18:23:45.561Z,1.00
2022-12-20T18:26:12.630Z,1.00
2022-12-20T18:28:39.946Z,1.00
2022-12-20T18:31:07.528Z,1.00
2022-12-20T18:33:34.151Z,1.00
2022-12-20T18:36:04.761Z,1.00
2022-12-20T18:38:31.799Z,1.00
2022-12-20T18:40:59.678Z,1.00
2022-12-20T18:43:26.623Z,1.00
2022-12-20T18:45:53.295Z,1.00
2022-12-20T18:48:19.849Z,1.00
2022-12-20T18:50:46.375Z,1.00
2022-12-20T18:53:13.069Z,1.00
2022-12-20T18:55:40.009Z,1.00
2022-12-20T18:58:06.643Z,1.00
2022-12-20T19:00:33.203Z,1.00
2022-12-20T19:03:00.078Z,1.00
2022-12-20T19:05:27.306Z,1.00
2022-12-20T19:07:53.835Z,1.00
2022-12-20T19:10:20.447Z,1.00
2022-12-20T19:12:46.941Z,1.00
2022-12-20T19:15:14.550Z,1.00
2022-12-20T19:17:41.293Z,1.00
2022-12-20T19:20:08.329Z,1.00
2022-12-20T19:22:34.971Z,1.00
2022-12-20T19:25:01.840Z,1.00
2022-12-20T19:27:28.348Z,1.00
2022-12-20T19:29:54.846Z,1.00
2022-12-20T19:32:21.438Z,1.00
2022-12-20T19:34:47.928Z,1.00
2022-12-20T19:37:14.479Z,1.00
2022-12-20T19:39:41.142Z,1.00
2022-12-20T19:42:23.774Z,1.00
2022-12-20T19:44:50.913Z,1.00
2022-12-20T19:47:17.551Z,1.00
2022-12-20T19:49:44.093Z,1.00
2022-12-20T19:52:10.626Z,1.00
2022-12-20T19:54:39.553Z,1.00
2022-12-20T19:57:06.064Z,1.00
2022-12-20T19:59:32.675Z,1.00
2022-12-20T20:01:59.352Z,1.00
2022-12-20T20:04:26.092Z,1.00
2022-12-20T20:06:52.623Z,1.00
2022-12-20T20:09:19.155Z,1.00
2022-12-20T20:11:45.667Z,1.00
2022-12-20T20:14:12.299Z,1.00
2022-12-20T20:16:38.906Z,1.00
2022-12-20T20:19:05.835Z,1.00
2022-12-20T20:21:34.998Z,1.00
2022-12-20T20:24:01.953Z,1.00
2022-12-20T20:26:29.497Z,1.00
2022-12-20T20:28:56.065Z,12.60
2022-12-20T20:31:22.732Z,5.00
2022-12-20T20:33:49.550Z,38.70
2022-12-20T20:36:17.785Z,16.30
2022-12-20T20:38:44.561Z,1.00
2022-12-20T20:41:11.502Z,1.00
2022-12-20T20:43:38.431Z,26.00
2022-12-20T20:46:09.394Z,27.60
2022-12-20T20:48:36.043Z,7.50
2022-12-20T20:51:02.670Z,40.90
2022-12-20T20:53:33.513Z,2.20
2022-12-20T20:56:01.711Z,12.40
2022-12-20T20:58:28.471Z,73.00
2022-12-20T21:00:59.350Z,75.80
2022-12-20T21:03:27.794Z,74.00
2022-12-20T21:08:41.262Z,99.90
2022-12-20T21:11:08.747Z,99.90
2022-12-20T21:13:35.434Z,99.90
2022-12-20T21:16:06.262Z,99.90
2022-12-20T21:18:33.000Z,99.90
2022-12-20T21:20:59.880Z,99.90
2022-12-20T21:23:26.366Z,99.90
2022-12-20T21:25:58.723Z,99.90
2022-12-20T21:28:25.264Z,1.00
2022-12-20T21:31:06.426Z,99.90
2022-12-20T21:33:33.008Z,99.90
2022-12-20T21:36:04.470Z,1.00
2022-12-20T21:38:31.041Z,1.00
2022-12-20T21:41:04.948Z,1.00
2022-12-20T21:43:31.902Z,99.90
2022-12-20T21:45:58.557Z,99.90
2022-12-20T21:48:25.817Z,99.90
2022-12-20T21:50:59.279Z,99.90
2022-12-20T21:53:25.805Z,99.90
2022-12-20T21:55:58.932Z,1.00
2022-12-20T21:58:25.967Z,1.00
2022-12-20T22:00:55.111Z,1.00
2022-12-20T22:03:22.933Z,1.00
2022-12-20T22:05:50.788Z,1.00
2022-12-20T22:08:17.889Z,1.00
2022-12-20T22:10:44.840Z,1.00
2022-12-20T22:13:11.553Z,1.00
2022-12-20T22:15:38.740Z,1.00
2022-12-20T22:18:08.613Z,1.00
2022-12-20T22:20:35.399Z,1.00
2022-12-20T22:23:02.352Z,1.00
2022-12-20T22:25:28.884Z,1.00
2022-12-20T22:27:55.483Z,1.00
2022-12-20T22:30:22.135Z,1.00
2022-12-20T22:32:48.646Z,99.90
2022-12-20T22:35:22.245Z,99.90
2022-12-20T22:37:49.462Z,99.90
2022-12-20T22:40:16.028Z,99.90
2022-12-20T22:42:42.538Z,99.90
2022-12-20T22:45:09.727Z,99.90
2022-12-20T22:47:36.807Z,1.00
2022-12-20T22:50:04.109Z,1.00
2022-12-20T22:52:32.143Z,1.00
2022-12-20T22:54:58.650Z,1.00
2022-12-20T22:57:25.296Z,1.00
2022-12-20T22:59:51.795Z,1.00
2022-12-20T23:02:18.532Z,99.90
2022-12-20T23:04:45.183Z,1.00
2022-12-20T23:07:11.735Z,99.90
2022-12-20T23:09:38.251Z,1.00
2022-12-20T23:12:23.658Z,1.00
2022-12-20T23:15:08.675Z,99.90
2022-12-20T23:17:35.171Z,99.90
2022-12-20T23:20:20.402Z,1.00
2022-12-20T23:22:47.054Z,1.00
2022-12-20T23:25:18.119Z,1.00
2022-12-20T23:27:45.771Z,99.90
2022-12-20T23:30:14.132Z,99.90
2022-12-20T23:32:44.273Z,99.90
2022-12-20T23:35:12.879Z,99.90
2022-12-20T23:37:39.744Z,99.90
2022-12-20T23:40:06.785Z,99.90
2022-12-20T23:42:33.301Z,99.90
2022-12-20T23:44:59.819Z,99.90
2022-12-20T23:47:26.367Z,99.90
2022-12-20T23:49:52.885Z,99.90
2022-12-20T23:52:19.450Z,99.90
2022-12-20T23:54:45.936Z,99.90
2022-12-20T23:57:12.509Z,99.90
2022-12-20T23:59:39.094Z,99.90
